Time;durP1;ratioP1;P1;durP2;ratioP2;P2;SDS_P1;SDS_P2;PMS_P1;PMS_P2;Temp;Humidity;BMP_temperature;BMP_pressure;BME280_temperature;BME280_humidity;BME280_pressure;Samples;Min_cycle;Max_cycle;Signal;HPM_P1;HPM_P2
2021/12/01 05:47:40;;;;;;;13.62;8.35;;;;;;;-0.79;93.74;98382.24;1629531;85;21082;-38
2021/12/01 05:50:07;;;;;;;13.90;8.80;;;;;;;-0.76;94.58;98385.27;1606690;88;21535;-47
2021/12/01 05:52:34;;;;;;;14.18;9.38;;;;;;;-0.77;95.20;98383.12;1602766;88;20973;-38
2021/12/01 05:55:01;;;;;;;15.65;9.00;;;;;;;-0.77;95.84;98382.26;1598821;89;21609;-39
2021/12/01 05:57:28;;;;;;;12.93;8.20;;;;;;;-0.76;96.42;98382.27;1589933;89;21108;-40
2021/12/01 05:59:55;;;;;;;13.48;7.25;;;;;;;-0.75;96.93;98376.32;1588654;89;21025;-46
2021/12/01 06:02:22;;;;;;;15.83;9.60;;;;;;;-0.75;97.47;98378.89;1592813;89;21172;-46
2021/12/01 06:04:50;;;;;;;16.65;10.25;;;;;;;-0.75;97.97;98375.03;1589528;89;21013;-47
2021/12/01 06:07:19;;;;;;;15.00;8.35;;;;;;;-0.74;98.20;98375.90;1591864;88;21091;-38
2021/12/01 06:09:46;;;;;;;13.30;8.15;;;;;;;-0.72;98.64;98369.92;1592280;89;21112;-46
2021/12/01 06:12:13;;;;;;;13.03;8.78;;;;;;;-0.70;98.96;98379.79;1594749;89;21123;-46
2021/12/01 06:14:41;;;;;;;13.48;8.78;;;;;;;-0.70;99.29;98378.93;1589414;89;21035;-46
2021/12/01 06:17:10;;;;;;;15.20;9.10;;;;;;;-0.68;99.59;98374.27;1587678;89;21046;-46
2021/12/01 06:19:45;;;;;;;12.58;8.60;;;;;;;-0.65;100.00;98380.72;1588822;89;21515;-46
2021/12/01 06:22:13;;;;;;;13.88;9.38;;;;;;;-0.62;100.00;98377.34;1586927;89;22260;-47
2021/12/01 06:24:46;;;;;;;14.47;9.58;;;;;;;-0.60;100.00;98374.38;1582942;88;21032;-37
2021/12/01 06:27:14;;;;;;;13.60;9.48;;;;;;;-0.57;100.00;98375.71;1597816;88;21078;-37
2021/12/01 06:29:41;;;;;;;12.82;8.63;;;;;;;-0.54;100.00;98375.31;1623463;87;21000;-37
2021/12/01 06:32:17;;;;;;;16.07;8.55;;;;;;;-0.52;100.00;98373.18;1619150;87;21111;-46
2021/12/01 06:43:45;;;;;;;12.15;7.65;;;;;;;-0.39;100.00;98364.81;1784963;78;23421;-38
2021/12/01 06:46:49;;;;;;;12.53;6.90;;;;;;;-0.40;100.00;98365.66;1739515;81;21017;-40
2021/12/01 06:49:45;;;;;;;15.60;7.87;;;;;;;-0.38;100.00;98367.82;1723870;80;21132;-46
2021/12/01 06:52:28;;;;;;;9.18;7.25;;;;;;;-0.36;100.00;98362.27;1727665;80;21981;-38
2021/12/01 06:55:02;;;;;;;11.28;6.90;;;;;;;-0.34;100.00;98363.17;1730932;80;21068;-37
2021/12/01 06:57:52;;;;;;;11.70;7.75;;;;;;;-0.30;100.00;98360.63;1725780;80;21040;-38
2021/12/01 07:03:41;;;;;;;10.82;7.60;;;;;;;-0.22;100.00;98364.60;1731272;80;20993;-47
2021/12/01 07:06:15;;;;;;;10.75;7.12;;;;;;;-0.20;100.00;98380.03;1706414;82;21053;-37
2021/12/01 07:09:01;;;;;;;10.40;7.45;;;;;;;-0.20;100.00;98375.75;1734761;80;20978;-38
2021/12/01 07:11:36;;;;;;;9.38;6.80;;;;;;;-0.19;100.00;98383.91;1730916;80;21092;-46
2021/12/01 07:14:18;;;;;;;11.25;6.95;;;;;;;-0.17;100.00;98386.09;1713785;82;21044;-46
2021/12/01 07:17:07;;;;;;;11.18;6.55;;;;;;;-0.19;100.00;98386.47;1727605;80;21673;-47
2021/12/01 07:19:57;;;;;;;8.43;6.53;;;;;;;-0.20;100.00;98392.89;1727146;80;20958;-38
2021/12/01 07:22:43;;;;;;;10.45;6.65;;;;;;;-0.23;100.00;98389.88;1726688;80;21044;-38
2021/12/01 07:25:40;;;;;;;12.47;6.72;;;;;;;-0.24;100.00;98382.11;1727172;80;21092;-46
2021/12/01 07:33:05;;;;;;;8.23;6.17;;;;;;;-0.26;100.00;98385.96;1725907;80;21097;-38
2021/12/01 07:44:05;;;;;;;13.78;8.10;;;;;;;-0.22;100.00;98404.87;1680012;83;21009;-47
2021/12/01 07:50:04;;;;;;;11.60;7.90;;;;;;;-0.19;100.00;98390.75;1667576;84;21015;-46
2021/12/01 07:52:43;;;;;;;15.00;8.55;;;;;;;-0.17;100.00;98405.80;1672657;84;21583;-47
2021/12/01 07:55:10;;;;;;;11.90;7.70;;;;;;;-0.17;100.00;98406.66;1691130;83;21016;-47
2021/12/01 07:57:38;;;;;;;13.32;8.08;;;;;;;-0.14;100.00;98407.09;1688255;84;21586;-47
2021/12/01 08:00:17;;;;;;;12.00;7.78;;;;;;;-0.12;100.00;98398.55;1675258;83;21029;-39
2021/12/01 08:02:45;;;;;;;15.03;9.03;;;;;;;-0.08;100.00;98402.03;1679386;84;21714;-39
2021/12/01 08:05:12;;;;;;;12.03;7.97;;;;;;;-0.05;100.00;98417.09;1678984;83;21120;-44
2021/12/01 08:07:39;;;;;;;11.90;7.85;;;;;;;-0.01;100.00;98412.83;1676935;83;21635;-39
2021/12/01 08:10:07;;;;;;;11.60;8.40;;;;;;;0.02;100.00;98409.45;1675739;83;21623;-39
2021/12/01 08:13:16;;;;;;;12.82;8.63;;;;;;;0.05;100.00;98405.61;1678241;83;21060;-38
2021/12/01 08:16:19;;;;;;;10.05;6.83;;;;;;;0.08;100.00;98406.52;1675903;83;21124;-47
2021/12/01 08:19:52;;;;;;;13.10;7.30;;;;;;;0.13;100.00;98407.86;1676534;83;21517;-38
2021/12/01 08:22:48;;;;;;;8.98;6.75;;;;;;;0.18;100.00;98407.07;1673177;83;21377;-38
2021/12/01 08:25:16;;;;;;;11.33;6.95;;;;;;;0.21;100.00;98401.08;1678137;83;21086;-39
2021/12/01 08:27:42;;;;;;;11.33;7.67;;;;;;;0.26;100.00;98403.29;1673775;84;21029;-38
2021/12/01 08:34:34;;;;;;;9.18;6.60;;;;;;;0.35;99.95;98411.12;1723012;82;21312;-39
2021/12/01 08:38:18;;;;;;;10.18;7.33;;;;;;;0.44;99.22;98412.91;1716661;81;21600;-48
2021/12/01 08:41:06;;;;;;;10.20;6.10;;;;;;;0.48;98.99;98400.52;1720811;81;21104;-38
2021/12/01 08:44:22;;;;;;;8.60;5.87;;;;;;;0.51;98.24;98405.25;1722623;82;22272;-47
2021/12/01 08:47:15;;;;;;;10.55;6.95;;;;;;;0.51;97.85;98409.11;1734754;80;21305;-39
2021/12/01 08:49:47;;;;;;;8.53;6.12;;;;;;;0.52;98.14;98412.16;1737271;80;21254;-47
2021/12/01 08:52:15;;;;;;;9.98;6.95;;;;;;;0.52;97.83;98395.42;1710299;81;21103;-47
2021/12/01 08:54:48;;;;;;;9.25;6.87;;;;;;;0.56;97.89;98400.16;1739241;81;21139;-40
2021/12/01 08:57:35;;;;;;;9.93;7.08;;;;;;;0.60;97.82;98402.35;1714394;81;21048;-38
2021/12/01 09:00:09;;;;;;;10.35;7.45;;;;;;;0.60;97.63;98398.49;1720845;81;21100;-46
2021/12/01 09:02:36;;;;;;;12.03;7.47;;;;;;;0.60;97.68;98406.21;1744763;81;21532;-47
2021/12/01 09:05:05;;;;;;;12.65;7.45;;;;;;;0.61;97.79;98402.36;1737318;80;20981;-45
2021/12/01 09:07:37;;;;;;;12.00;7.78;;;;;;;0.62;97.48;98403.22;1737435;81;20976;-46
2021/12/01 09:10:07;;;;;;;9.25;6.95;;;;;;;0.63;97.06;98416.09;1726907;81;21017;-39
2021/12/01 09:12:35;;;;;;;11.90;7.85;;;;;;;0.64;96.98;98399.83;1739048;80;21009;-47
2021/12/01 09:15:07;;;;;;;13.93;7.42;;;;;;;0.67;97.10;98388.69;1741132;80;20993;-38
2021/12/01 09:17:35;;;;;;;9.83;7.25;;;;;;;0.68;96.87;98395.13;1725574;80;21589;-38
2021/12/01 09:20:05;;;;;;;11.00;7.10;;;;;;;0.69;96.39;98394.70;1733573;80;21970;-46
2021/12/01 09:23:21;;;;;;;10.43;7.72;;;;;;;0.71;96.40;98392.59;1718698;80;21492;-45
2021/12/01 09:26:18;;;;;;;12.15;8.40;;;;;;;0.76;96.65;98387.06;1735982;80;21679;-38
2021/12/01 09:28:45;;;;;;;11.30;7.90;;;;;;;0.83;96.29;98389.27;1736029;80;21434;-46
2021/12/01 09:31:19;;;;;;;10.48;6.90;;;;;;;0.88;96.50;98391.45;1741249;80;21009;-38
2021/12/01 09:33:46;;;;;;;14.28;7.87;;;;;;;0.92;96.88;98403.48;1736926;81;21067;-37
2021/12/01 09:36:18;;;;;;;;;;;;;;;0.95;97.02;98397.52;1742283;81;21013;-37
2021/12/01 09:38:50;;;;;;;15.65;7.80;;;;;;;0.96;96.91;98400.09;1738975;80;20107;-37
2021/12/01 09:41:20;;;;;;;11.18;7.58;;;;;;;0.99;97.04;98401.84;1705359;80;21050;-46
2021/12/01 09:43:48;;;;;;;11.85;6.90;;;;;;;1.00;97.11;98399.70;1736781;80;21133;-38
2021/12/01 09:46:39;;;;;;;11.18;7.80;;;;;;;1.03;97.11;98416.45;1737447;80;21472;-46
2021/12/01 09:49:24;;;;;;;11.88;7.47;;;;;;;1.05;97.48;98400.61;1729587;80;21521;-38
2021/12/01 09:51:52;;;;;;;11.50;7.20;;;;;;;1.08;97.71;98406.19;1730050;80;21500;-47
2021/12/01 09:54:19;;;;;;;12.33;7.67;;;;;;;1.09;97.62;98413.06;1729212;80;21433;-47
2021/12/01 09:56:46;;;;;;;10.08;7.17;;;;;;;1.09;97.48;98410.48;1728789;82;21588;-39
2021/12/01 09:59:13;;;;;;;11.05;7.00;;;;;;;1.12;97.67;98405.38;1730619;80;21524;-39
2021/12/01 10:01:39;;;;;;;12.25;8.08;;;;;;;1.16;97.39;98411.86;1729852;80;21052;-47
2021/12/01 10:04:07;;;;;;;10.00;7.85;;;;;;;1.17;97.30;98413.58;1728049;82;20979;-46
2021/12/01 10:06:34;;;;;;;10.78;7.65;;;;;;;1.20;97.22;98403.28;1733028;80;21040;-46
2021/12/01 10:09:05;;;;;;;10.95;7.33;;;;;;;1.28;96.94;98411.08;1726452;80;21048;-47
2021/12/01 10:12:27;;;;;;;11.03;7.30;;;;;;;1.36;96.92;98413.70;1722714;82;21096;-48
2021/12/01 10:15:00;;;;;;;10.55;6.85;;;;;;;1.44;96.43;98415.46;1726251;80;21398;-46
2021/12/01 10:17:41;;;;;;;9.78;6.85;;;;;;;1.55;96.05;98408.66;1726223;82;21044;-46
2021/12/01 10:20:17;;;;;;;9.50;6.12;;;;;;;1.65;95.18;98417.75;1727000;82;21450;-38
2021/12/01 10:23:11;;;;;;;11.63;6.03;;;;;;;1.76;94.47;98407.07;1728864;80;20985;-38
2021/12/01 10:25:38;;;;;;;11.10;6.30;;;;;;;1.85;93.51;98415.69;1727304;80;21641;-38
2021/12/01 10:28:31;;;;;;;13.75;8.90;;;;;;;1.95;92.47;98418.33;1702565;80;21945;-39
2021/12/01 10:32:10;;;;;;;14.25;10.25;;;;;;;2.01;91.90;98427.38;1712651;80;21040;-39
2021/12/01 10:34:58;;;;;;;9.60;5.72;;;;;;;2.06;91.84;98428.27;1729882;80;21029;-45
2021/12/01 10:37:30;;;;;;;8.15;5.70;;;;;;;2.12;91.01;98438.61;1730871;80;21049;-38
2021/12/01 10:40:46;;;;;;;6.12;4.53;;;;;;;2.14;90.85;98436.89;1710910;82;21071;-48
2021/12/01 10:43:19;;;;;;;5.87;4.83;;;;;;;2.18;90.80;98429.60;1728647;80;21643;-47
2021/12/01 10:45:52;;;;;;;6.72;4.22;;;;;;;2.18;90.07;98432.19;1725618;80;21538;-47
2021/12/01 10:48:28;;;;;;;7.03;4.97;;;;;;;2.15;89.26;98436.48;1715448;81;21438;-47
2021/12/01 10:50:55;;;;;;;9.33;6.00;;;;;;;2.10;88.85;98449.36;1714183;81;21612;-47
2021/12/01 10:53:23;;;;;;;8.50;5.25;;;;;;;2.09;89.44;98432.17;1716328;81;21017;-47
2021/12/01 10:55:56;;;;;;;11.12;5.87;;;;;;;2.12;89.03;98438.61;1717254;81;21092;-38
2021/12/01 10:58:35;;;;;;;9.98;6.20;;;;;;;2.13;89.35;98436.03;1718777;82;21041;-40
2021/12/01 11:01:03;;;;;;;9.78;6.05;;;;;;;2.19;89.20;98436.48;1717071;81;21383;-39
2021/12/01 11:03:32;;;;;;;9.98;6.58;;;;;;;2.25;89.18;98435.64;1713581;82;21082;-38
2021/12/01 11:06:12;;;;;;;12.43;7.45;;;;;;;2.31;89.30;98442.98;1716994;82;21081;-38
2021/12/01 11:08:44;;;;;;;8.53;5.47;;;;;;;2.39;89.34;98449.47;1713235;81;21095;-41
2021/12/01 11:11:19;;;;;;;8.90;5.00;;;;;;;2.47;88.33;98458.09;1712757;81;21144;-39
2021/12/01 11:13:50;;;;;;;6.53;4.53;;;;;;;2.49;88.42;98456.37;1699278;82;21060;-46
2021/12/01 11:16:22;;;;;;;8.65;5.75;;;;;;;2.48;88.45;98455.94;1702655;81;21090;-47
2021/12/01 11:18:51;;;;;;;8.47;5.43;;;;;;;2.48;89.02;98445.61;1709328;81;21471;-47
2021/12/01 11:21:36;;;;;;;6.20;4.92;;;;;;;2.46;89.04;98460.68;1684167;82;21783;-48
2021/12/01 11:25:08;;;;;;;7.10;5.12;;;;;;;2.45;89.51;98460.25;1713526;81;21535;-47
2021/12/01 11:27:41;;;;;;;5.97;4.30;;;;;;;2.47;89.68;98454.66;1692812;83;21072;-47
2021/12/01 11:30:40;;;;;;;9.55;6.25;;;;;;;2.55;89.25;98455.13;1689973;83;21477;-46
2021/12/01 11:34:18;;;;;;;11.30;5.97;;;;;;;2.63;89.17;98450.83;1681292;83;21078;-48
2021/12/01 11:38:10;;;;;;;9.85;5.92;;;;;;;2.77;88.74;98470.65;1681662;83;21642;-38
2021/12/01 11:41:28;;;;;;;5.37;3.80;;;;;;;2.85;87.53;98475.42;1674149;83;21689;-45
2021/12/01 11:44:58;;;;;;;7.78;4.75;;;;;;;2.85;87.55;98494.80;1669634;83;21442;-38
2021/12/01 11:48:24;;;;;;;7.28;3.70;;;;;;;2.85;87.37;98493.50;1682376;83;21017;-39
2021/12/01 11:51:12;;;;;;;9.65;4.83;;;;;;;2.83;87.71;98493.47;1686837;83;21143;-38
2021/12/01 11:53:46;;;;;;;8.10;4.87;;;;;;;2.85;87.99;98495.66;1685407;83;21025;-37
2021/12/01 11:56:18;;;;;;;6.33;4.97;;;;;;;2.88;87.57;98503.83;1695414;83;21104;-38
2021/12/01 11:58:51;;;;;;;7.92;4.55;;;;;;;2.89;86.90;98510.70;1701296;82;20991;-36
2021/12/01 12:01:24;;;;;;;;;;;;;;;2.86;87.08;98513.30;1717583;82;21097;-42
2021/12/01 12:04:05;;;;;;;15.00;8.50;;;;;;;2.82;87.26;98518.02;1722731;81;20111;-41
2021/12/01 12:06:37;;;;;;;15.85;7.40;;;;;;;2.78;87.46;98516.27;1714623;81;21122;-45
2021/12/01 12:09:08;;;;;;;16.82;7.90;;;;;;;2.75;87.68;98521.45;1713649;81;21013;-45
2021/12/01 12:11:49;;;;;;;17.37;6.85;;;;;;;2.71;87.65;98519.70;1718152;81;21029;-37
2021/12/01 12:14:28;;;;;;;12.68;6.60;;;;;;;2.68;87.70;98523.16;1715544;82;21463;-37
2021/12/01 12:17:13;;;;;;;17.25;7.20;;;;;;;2.65;87.96;98528.29;1714545;82;21656;-38
2021/12/01 12:20:14;;;;;;;13.25;6.20;;;;;;;2.64;87.99;98527.86;1714305;82;21019;-46
2021/12/01 12:22:52;;;;;;;15.18;6.15;;;;;;;2.60;88.15;98526.98;1709593;81;21399;-46
2021/12/01 12:25:40;;;;;;;9.85;5.72;;;;;;;2.58;88.17;98533.86;1710603;82;21982;-38
2021/12/01 12:28:31;;;;;;;10.95;6.55;;;;;;;2.56;88.50;98535.59;1720170;81;20994;-39
2021/12/01 12:31:21;;;;;;;14.15;7.62;;;;;;;2.55;88.72;98540.33;1712929;81;21668;-39
2021/12/01 12:33:53;;;;;;;19.50;10.10;;;;;;;2.54;88.97;98564.39;1656113;83;21019;-39
2021/12/01 12:36:45;;;;;;;20.52;6.85;;;;;;;2.53;89.03;98546.32;1652919;84;21082;-37
2021/12/01 12:39:29;;;;;;;28.50;8.80;;;;;;;2.53;89.00;98550.19;1656350;83;21179;-47
2021/12/01 12:42:08;;;;;;;16.62;8.00;;;;;;;2.51;89.31;98560.52;1651030;83;21089;-47
2021/12/01 12:44:51;;;;;;;17.80;8.00;;;;;;;2.47;89.28;98560.06;1656623;84;20996;-46
2021/12/01 12:47:39;;;;;;;14.93;8.28;;;;;;;2.45;89.44;98568.67;1656707;84;21574;-37
2021/12/01 12:50:21;;;;;;;18.55;7.45;;;;;;;2.43;89.63;98571.22;1647092;84;21342;-46
2021/12/01 12:52:53;;;;;;;17.15;8.35;;;;;;;2.41;89.82;98565.20;1645030;86;21295;-47
2021/12/01 12:55:31;;;;;;;12.65;6.45;;;;;;;2.39;90.04;98566.92;1648955;86;21482;-38
2021/12/01 12:58:09;;;;;;;17.37;7.67;;;;;;;2.36;90.30;98566.89;1642526;86;20988;-38
2021/12/01 13:00:53;;;;;;;16.85;6.35;;;;;;;2.36;90.58;98578.50;1639675;86;21138;-37
2021/12/01 13:03:27;;;;;;;18.45;6.90;;;;;;;2.34;90.73;98582.38;1641351;85;21026;-38
2021/12/01 13:06:01;;;;;;;14.70;7.08;;;;;;;2.33;90.99;98583.23;1649028;84;21145;-44
2021/12/01 13:08:39;;;;;;;13.15;5.85;;;;;;;2.33;91.29;98594.84;1649919;84;21007;-45
2021/12/01 13:11:20;;;;;;;16.05;7.37;;;;;;;2.33;91.58;98605.60;1686324;81;21056;-38
2021/12/01 13:13:49;;;;;;;18.05;7.25;;;;;;;2.33;91.86;98603.02;1717957;81;20984;-39
2021/12/01 13:16:18;;;;;;;19.90;7.75;;;;;;;2.31;92.34;98620.19;1716473;81;21607;-45
2021/12/01 13:18:45;;;;;;;17.32;7.85;;;;;;;2.26;92.63;98621.48;1715153;81;21005;-45
2021/12/01 13:21:17;;;;;;;15.38;7.35;;;;;;;2.23;92.98;98624.02;1718164;81;21067;-45
2021/12/01 13:23:48;;;;;;;18.98;7.92;;;;;;;2.22;93.24;98626.17;1678354;83;20993;-39
2021/12/01 13:26:33;;;;;;;16.87;7.17;;;;;;;2.21;93.34;98640.36;1659357;84;21609;-37
2021/12/01 13:29:08;;;;;;;15.45;7.90;;;;;;;2.21;93.42;98642.95;1661049;84;20997;-39
2021/12/01 13:31:44;;;;;;;13.78;6.87;;;;;;;2.18;93.65;98652.80;1660460;84;22039;-38
2021/12/01 13:34:23;;;;;;;13.45;7.35;;;;;;;2.16;93.72;98658.81;1712204;81;20973;-40
2021/12/01 13:36:57;;;;;;;11.80;6.87;;;;;;;2.13;93.94;98666.09;1716352;81;21021;-40
2021/12/01 13:39:29;;;;;;;11.20;7.72;;;;;;;2.10;94.09;98671.24;1717706;81;20961;-39
2021/12/01 13:41:58;;;;;;;12.50;6.87;;;;;;;2.09;94.18;98680.70;1720588;81;21052;-47
2021/12/01 13:44:39;;;;;;;8.48;5.87;;;;;;;2.05;94.36;98687.97;1723265;81;21422;-47
2021/12/01 13:47:11;;;;;;;10.45;7.12;;;;;;;2.02;94.45;98691.80;1718090;81;21028;-46
2021/12/01 13:49:41;;;;;;;12.78;6.80;;;;;;;2.01;94.57;98683.63;1670629;85;20980;-45
2021/12/01 13:52:09;;;;;;;7.53;5.50;;;;;;;2.01;94.73;98685.34;1703454;82;21052;-46
2021/12/01 13:54:37;;;;;;;12.18;8.15;;;;;;;1.99;94.73;98697.37;1729293;82;21560;-38
2021/12/01 13:57:08;;;;;;;14.35;8.48;;;;;;;1.99;94.80;98693.50;1720157;82;21576;-38
2021/12/01 13:59:48;;;;;;;22.20;10.18;;;;;;;1.95;94.73;98705.50;1739253;82;20961;-37
2021/12/01 14:02:25;;;;;;;16.15;8.13;;;;;;;1.95;94.87;98713.66;1742444;82;21029;-37
2021/12/01 14:04:52;;;;;;;12.28;7.37;;;;;;;1.92;94.72;98713.23;1742714;82;21002;-46
2021/12/01 14:07:21;;;;;;;16.02;7.40;;;;;;;1.90;94.71;98726.94;1734022;82;21065;-38
2021/12/01 14:10:09;;;;;;;8.98;6.53;;;;;;;1.88;94.92;98728.66;1732874;82;21013;-46
2021/12/01 14:12:40;;;;;;;10.10;7.60;;;;;;;1.86;95.04;98736.37;1730486;82;20987;-45
2021/12/01 14:15:07;;;;;;;9.03;6.83;;;;;;;1.86;95.28;98746.70;1739041;82;21467;-45
2021/12/01 14:17:34;;;;;;;9.08;6.40;;;;;;;1.86;95.59;98747.98;1735160;82;21509;-46
2021/12/01 14:20:01;;;;;;;8.80;6.53;;;;;;;1.85;95.89;98744.52;1735662;82;20948;-46
2021/12/01 14:22:28;;;;;;;9.68;6.97;;;;;;;1.84;96.14;98753.11;1744204;82;21001;-45
2021/12/01 14:25:01;;;;;;;7.67;6.17;;;;;;;1.84;96.21;98756.97;1676899;82;21028;-45
